createdAt,value
2018-11-20T11:54:29.035Z,235.80
2018-11-20T11:55:29.040Z,472.20
2018-11-20T11:56:29.017Z,345.40
2018-11-20T11:57:28.989Z,395.10
2018-11-20T11:58:28.985Z,347.20
2018-11-20T11:59:28.979Z,323.60
2018-11-20T12:00:28.959Z,282.80
2018-11-20T12:03:10.164Z,335.00
2018-11-20T12:04:48.683Z,325.90
2018-11-20T12:05:48.692Z,308.90
2018-11-20T12:06:48.721Z,295.70
2018-11-20T12:07:48.652Z,326.20
2018-11-20T12:08:48.651Z,377.20
2018-11-20T12:09:48.654Z,379.70
2018-11-20T12:10:48.625Z,309.70
2018-11-20T12:11:48.603Z,349.80
2018-11-20T12:12:48.624Z,332.10
2018-11-20T12:13:48.615Z,266.00
2018-11-20T12:14:51.367Z,256.80
2018-11-20T12:15:48.565Z,289.40
2018-11-20T12:16:48.609Z,305.70
2018-11-20T12:17:48.562Z,282.10
2018-11-20T12:18:48.597Z,272.00
2018-11-20T12:19:48.521Z,344.30
2018-11-20T12:20:48.529Z,299.50
2018-11-20T12:21:48.525Z,299.70
2018-11-20T12:22:48.511Z,281.60
2018-11-20T12:23:48.510Z,290.20
2018-11-20T12:24:48.496Z,263.60
2018-11-20T12:25:48.491Z,218.00
2018-11-20T12:26:48.459Z,316.40
2018-11-20T12:27:48.436Z,297.60
2018-11-20T12:28:51.069Z,261.40
2018-11-20T12:29:48.434Z,269.60
2018-11-20T12:30:48.410Z,285.40
2018-11-20T12:31:50.657Z,307.20
2018-11-20T12:32:49.432Z,258.50
2018-11-20T12:33:48.389Z,309.50
2018-11-20T12:34:48.408Z,267.20
2018-11-20T12:35:48.374Z,329.40
2018-11-20T12:36:48.942Z,286.70
2018-11-20T12:37:48.394Z,312.60
2018-11-20T12:38:48.330Z,335.60
2018-11-20T12:39:48.351Z,245.30
2018-11-20T12:40:48.529Z,285.50
2018-11-20T12:41:48.310Z,362.20
2018-11-20T12:42:48.317Z,381.40
2018-11-20T12:43:48.341Z,328.90
2018-11-20T12:44:48.293Z,292.50
2018-11-20T12:45:48.263Z,388.30
2018-11-20T12:46:50.907Z,299.80
2018-11-20T12:47:48.266Z,262.30
2018-11-20T12:48:48.250Z,319.50
2018-11-20T12:49:49.751Z,355.40
2018-11-20T12:50:48.234Z,367.40
2018-11-20T12:51:48.756Z,384.20
2018-11-20T12:52:48.212Z,393.50
2018-11-20T12:53:48.204Z,467.20
2018-11-20T12:54:48.220Z,424.60
2018-11-20T12:55:48.208Z,454.60
2018-11-20T12:56:48.199Z,346.40
2018-11-20T12:57:48.183Z,382.70
2018-11-20T12:58:48.224Z,371.90
2018-11-20T12:59:48.162Z,367.10
2018-11-20T13:00:48.158Z,372.00
2018-11-20T13:01:48.138Z,320.20
2018-11-20T13:02:48.159Z,394.60
2018-11-20T13:03:48.108Z,407.60
2018-11-20T13:04:49.909Z,364.30
2018-11-20T13:05:48.098Z,466.00
2018-11-20T13:06:48.068Z,411.80
2018-11-20T13:07:48.107Z,346.00
2018-11-20T13:08:48.075Z,389.00
2018-11-20T13:09:48.076Z,405.60
2018-11-20T13:10:48.638Z,413.40
2018-11-20T13:11:48.045Z,413.20
2018-11-20T13:12:48.063Z,363.90
2018-11-20T13:13:50.159Z,373.40
2018-11-20T13:14:49.435Z,412.80
2018-11-20T13:15:49.415Z,416.10
2018-11-20T13:16:47.993Z,405.10
2018-11-20T13:17:49.167Z,412.70
2018-11-20T13:18:50.605Z,398.30
2018-11-20T13:19:48.033Z,387.10
2018-11-20T13:20:50.221Z,416.90
2018-11-20T13:21:49.833Z,358.50
2018-11-20T13:22:49.496Z,473.70
2018-11-20T13:23:49.504Z,385.50
2018-11-20T13:24:47.946Z,369.20
2018-11-20T13:25:47.964Z,359.30
2018-11-20T13:26:47.936Z,360.40
2018-11-20T13:27:47.909Z,359.90
2018-11-20T13:28:47.910Z,393.20
2018-11-20T13:29:47.862Z,361.80
2018-11-20T13:30:47.878Z,394.10
2018-11-20T13:31:47.854Z,354.20
2018-11-20T13:32:47.959Z,407.70
2018-11-20T13:33:49.600Z,320.10
2018-11-20T13:34:49.727Z,359.30
2018-11-20T13:35:47.847Z,335.00
2018-11-20T13:36:47.814Z,335.70
2018-11-20T13:37:47.801Z,360.20
2018-11-20T13:38:47.852Z,386.30
2018-11-20T13:39:47.778Z,367.50
2018-11-20T13:40:48.493Z,433.90
2018-11-20T13:41:47.764Z,373.60
2018-11-20T13:42:47.767Z,370.20
2018-11-20T13:43:47.754Z,381.30
2018-11-20T13:44:47.750Z,397.20
2018-11-20T13:45:47.752Z,338.30
2018-11-20T13:46:47.724Z,400.60
2018-11-20T13:47:47.766Z,377.40
2018-11-20T13:48:47.689Z,393.90
2018-11-20T13:49:47.704Z,282.40
2018-11-20T13:50:47.692Z,394.70
2018-11-20T13:51:47.681Z,373.40
2018-11-20T13:52:47.795Z,357.00
2018-11-20T13:53:47.653Z,289.50
2018-11-20T13:54:47.669Z,329.70
2018-11-20T13:55:47.642Z,363.50
2018-11-20T13:56:47.644Z,362.70
2018-11-20T13:57:47.633Z,317.00
2018-11-20T13:58:47.595Z,322.20
2018-11-20T13:59:47.590Z,317.50
2018-11-20T14:00:47.594Z,304.00
2018-11-20T14:01:47.594Z,334.80
2018-11-20T14:02:47.584Z,343.60
2018-11-20T14:03:47.588Z,465.80
2018-11-20T14:04:47.613Z,332.10
2018-11-20T14:05:47.556Z,361.90
2018-11-20T14:06:47.555Z,430.70
2018-11-20T14:07:47.550Z,397.40
2018-11-20T14:08:47.535Z,375.10
2018-11-20T14:09:47.539Z,425.70
2018-11-20T14:10:47.510Z,278.80
2018-11-20T14:11:47.496Z,364.10
2018-11-20T14:12:47.521Z,348.50
2018-11-20T14:13:47.511Z,365.40
2018-11-20T14:14:47.647Z,353.60
2018-11-20T14:15:47.471Z,249.30
2018-11-20T14:16:47.473Z,359.20
2018-11-20T14:17:47.485Z,347.00
2018-11-20T14:18:47.469Z,319.20
2018-11-20T14:19:47.450Z,386.50
2018-11-20T14:20:47.423Z,296.60
2018-11-20T14:21:47.419Z,320.50
2018-11-20T14:22:47.475Z,247.40
2018-11-20T14:23:47.426Z,248.50
2018-11-20T14:24:47.414Z,245.00
2018-11-20T14:25:47.395Z,268.60
2018-11-20T14:26:47.409Z,348.40
2018-11-20T14:27:47.421Z,321.10
2018-11-20T14:28:47.421Z,363.20
2018-11-20T14:29:47.380Z,278.00
2018-11-20T14:30:47.376Z,342.90
2018-11-20T14:31:47.368Z,327.70
2018-11-20T14:32:47.341Z,344.50
2018-11-20T14:33:47.391Z,344.20
2018-11-20T14:34:47.353Z,339.10
2018-11-20T14:35:47.315Z,374.10
2018-11-20T14:36:47.332Z,373.80
2018-11-20T14:37:47.303Z,358.40
2018-11-20T14:38:47.313Z,417.50
2018-11-20T14:39:47.301Z,370.90
2018-11-20T14:40:47.337Z,365.80
2018-11-20T14:41:47.266Z,388.70
2018-11-20T14:42:47.268Z,496.40
2018-11-20T14:43:47.266Z,437.00
2018-11-20T14:44:47.265Z,460.30
2018-11-20T14:45:47.245Z,435.90
2018-11-20T14:46:47.252Z,406.50
2018-11-20T14:47:47.214Z,451.50
2018-11-20T14:48:47.222Z,469.90
2018-11-20T14:49:47.221Z,410.40
2018-11-20T14:50:47.229Z,499.70
2018-11-20T14:51:47.204Z,489.70
2018-11-20T14:52:47.203Z,473.00
2018-11-20T14:53:47.180Z,500.70
2018-11-20T14:54:47.174Z,477.20
2018-11-20T14:55:47.154Z,454.60
2018-11-20T14:56:47.164Z,520.70
2018-11-20T14:57:47.150Z,526.00
2018-11-20T14:58:47.135Z,494.50
2018-11-20T14:59:47.113Z,479.20
2018-11-20T15:00:47.121Z,506.10
2018-11-20T15:01:47.088Z,540.10
2018-11-20T15:02:47.102Z,494.40
2018-11-20T15:03:47.098Z,526.20
2018-11-20T15:04:47.080Z,488.70
2018-11-20T15:05:47.067Z,404.70
2018-11-20T15:06:47.052Z,410.90
2018-11-20T15:07:47.071Z,419.30
2018-11-20T15:08:47.048Z,469.60
2018-11-20T15:09:47.037Z,425.50
2018-11-20T15:10:47.013Z,414.00
2018-11-20T15:11:47.020Z,392.00
2018-11-20T15:12:47.007Z,435.30
2018-11-20T15:13:47.013Z,451.20
2018-11-20T15:14:47.008Z,438.00
2018-11-20T15:15:46.987Z,485.40
2018-11-20T15:16:46.986Z,416.50
2018-11-20T15:17:46.967Z,451.90
2018-11-20T15:18:46.954Z,440.00
2018-11-20T15:19:46.974Z,406.30
2018-11-20T15:20:46.950Z,426.90
2018-11-20T15:21:46.928Z,442.50
2018-11-20T15:22:46.935Z,392.00
2018-11-20T15:23:46.897Z,401.50
2018-11-20T15:24:46.957Z,400.20
2018-11-20T15:25:46.921Z,453.50
2018-11-20T15:26:46.878Z,366.80
2018-11-20T15:27:46.894Z,417.10
2018-11-20T15:28:46.885Z,421.30
2018-11-20T15:29:46.882Z,386.60
2018-11-20T15:30:46.871Z,424.30
2018-11-20T15:31:46.855Z,420.50
2018-11-20T15:32:46.859Z,446.10
2018-11-20T15:33:46.812Z,433.40
2018-11-20T15:34:46.834Z,434.20
2018-11-20T15:35:46.821Z,466.30
2018-11-20T15:36:46.795Z,481.70
2018-11-20T15:37:46.784Z,490.50
2018-11-20T15:38:46.765Z,462.00
2018-11-20T15:39:46.787Z,431.60
2018-11-20T15:40:46.805Z,486.80
2018-11-20T15:41:46.792Z,516.00
2018-11-20T15:42:46.735Z,507.00
2018-11-20T15:43:46.753Z,508.50
2018-11-20T15:44:46.723Z,476.30
2018-11-20T15:45:46.732Z,470.40
2018-11-20T15:46:46.727Z,486.10
2018-11-20T15:47:46.715Z,480.50
2018-11-20T15:48:46.683Z,442.10
2018-11-20T15:49:46.686Z,503.30
2018-11-20T15:50:46.670Z,503.90
2018-11-20T15:51:46.682Z,499.10
2018-11-20T15:52:46.652Z,544.50
2018-11-20T15:53:46.646Z,487.70
2018-11-20T15:54:46.667Z,519.90
2018-11-20T15:55:46.612Z,490.50
2018-11-20T15:56:46.621Z,516.80
2018-11-20T15:57:46.600Z,435.60
2018-11-20T15:58:46.592Z,534.70
2018-11-20T15:59:46.580Z,546.80
2018-11-20T16:00:46.579Z,533.50
2018-11-20T16:01:46.546Z,531.00
2018-11-20T16:02:46.559Z,528.70
2018-11-20T16:03:46.590Z,525.10
2018-11-20T16:04:46.538Z,565.70
2018-11-20T16:05:46.562Z,531.90
2018-11-20T16:06:46.528Z,549.10
2018-11-20T16:07:46.512Z,523.60
2018-11-20T16:08:46.492Z,496.20
2018-11-20T16:09:46.534Z,518.80
2018-11-20T16:10:46.487Z,521.20
2018-11-20T16:11:46.470Z,444.80
2018-11-20T16:12:46.463Z,474.40
2018-11-20T16:13:46.444Z,530.30
2018-11-20T16:14:46.449Z,517.60
2018-11-20T16:15:46.744Z,456.90
2018-11-20T16:16:46.414Z,561.60
2018-11-20T16:17:46.416Z,507.50
2018-11-20T16:18:46.386Z,540.00
2018-11-20T16:19:46.382Z,562.10
2018-11-20T16:20:46.380Z,523.10
2018-11-20T16:21:46.368Z,513.20
2018-11-20T16:22:46.365Z,507.20
2018-11-20T16:23:46.403Z,479.00
2018-11-20T16:24:46.353Z,513.30
2018-11-20T16:25:46.378Z,525.40
2018-11-20T16:26:47.020Z,528.10
2018-11-20T16:27:46.334Z,487.00
2018-11-20T16:28:46.343Z,505.40
2018-11-20T16:29:46.286Z,471.40
2018-11-20T16:30:50.048Z,492.00
2018-11-20T16:31:46.265Z,445.50
2018-11-20T16:32:48.500Z,452.70
2018-11-20T16:33:46.291Z,484.80
2018-11-20T16:34:46.255Z,493.80
2018-11-20T16:35:46.240Z,454.20
2018-11-20T16:36:46.210Z,481.90
2018-11-20T16:37:46.205Z,451.00
2018-11-20T16:38:46.700Z,484.30
2018-11-20T16:39:46.200Z,455.50
2018-11-20T16:40:46.176Z,448.80
2018-11-20T16:41:46.181Z,439.50
2018-11-20T16:42:46.145Z,467.00
2018-11-20T16:43:46.169Z,481.60
2018-11-20T16:44:46.145Z,507.70
2018-11-20T16:45:46.182Z,436.60
2018-11-20T16:46:46.127Z,512.00
2018-11-20T16:47:46.351Z,487.70
2018-11-20T16:48:46.113Z,444.60
2018-11-20T16:49:46.091Z,483.50
2018-11-20T16:50:46.083Z,435.40
2018-11-20T16:51:46.062Z,433.30
2018-11-20T16:52:46.077Z,479.90
2018-11-20T16:53:46.059Z,466.00
2018-11-20T16:54:46.059Z,475.80
2018-11-20T16:55:46.058Z,464.80
2018-11-20T16:56:46.031Z,481.90
2018-11-20T16:57:46.019Z,479.60
2018-11-20T16:58:45.994Z,486.60
2018-11-20T16:59:45.988Z,505.70
2018-11-20T17:00:46.008Z,506.90
2018-11-20T17:01:45.992Z,496.10
2018-11-20T17:02:45.951Z,479.00
2018-11-20T17:03:45.968Z,526.30
2018-11-20T17:04:45.957Z,471.80
2018-11-20T17:05:45.947Z,469.40
2018-11-20T17:06:45.929Z,508.10
2018-11-20T17:07:45.919Z,547.30
2018-11-20T17:08:45.919Z,492.20
2018-11-20T17:09:45.899Z,525.70
2018-11-20T17:10:45.893Z,546.70
2018-11-20T17:11:45.866Z,530.80
2018-11-20T17:12:45.876Z,480.90
2018-11-20T17:13:45.847Z,553.40
2018-11-20T17:14:45.853Z,511.40
2018-11-20T17:15:45.820Z,512.20
2018-11-20T17:16:45.845Z,549.80
2018-11-20T17:17:45.838Z,495.90
2018-11-20T17:18:45.807Z,505.80
2018-11-20T17:19:45.794Z,517.10
2018-11-20T17:20:45.782Z,496.50
2018-11-20T17:21:45.771Z,447.80
2018-11-20T17:22:45.779Z,512.30
2018-11-20T17:23:45.739Z,553.20
2018-11-20T17:24:45.761Z,517.00
2018-11-20T17:25:45.729Z,532.50
2018-11-20T17:26:45.732Z,501.50
2018-11-20T17:27:45.720Z,538.10
2018-11-20T17:28:45.747Z,486.30
2018-11-20T17:29:45.697Z,501.10
2018-11-20T17:30:45.723Z,482.20
2018-11-20T17:31:45.707Z,512.90
2018-11-20T17:32:45.680Z,553.40
2018-11-20T17:33:45.694Z,546.10
2018-11-20T17:34:45.687Z,543.20
2018-11-20T17:35:45.678Z,525.80
2018-11-20T17:36:45.655Z,538.30
2018-11-20T17:37:45.614Z,522.90
2018-11-20T17:38:45.630Z,551.10
2018-11-20T17:39:45.594Z,525.00
2018-11-20T17:40:45.593Z,546.20
2018-11-20T17:41:45.567Z,525.40
2018-11-20T17:42:45.569Z,551.30
2018-11-20T17:43:45.604Z,601.10
2018-11-20T17:44:45.541Z,524.30
2018-11-20T17:45:45.532Z,570.20
2018-11-20T17:46:45.519Z,530.20
2018-11-20T17:47:45.504Z,566.50
2018-11-20T17:48:45.892Z,570.50
2018-11-20T17:49:45.490Z,577.20
2018-11-20T17:50:45.460Z,549.10
2018-11-20T17:51:47.636Z,602.70
2018-11-20T17:52:45.459Z,597.50
2018-11-20T17:53:45.494Z,553.50
2018-11-20T17:54:45.451Z,544.30
2018-11-20T17:55:45.423Z,562.30
2018-11-20T17:56:45.408Z,514.20
2018-11-20T17:57:45.393Z,532.50
2018-11-20T17:58:45.397Z,583.70
2018-11-20T17:59:45.391Z,572.50
2018-11-20T18:00:45.384Z,528.10
2018-11-20T18:01:45.370Z,543.80
2018-11-20T18:02:45.398Z,544.50
2018-11-20T18:03:45.320Z,533.10
2018-11-20T18:04:45.328Z,524.00
2018-11-20T18:05:45.331Z,523.20
2018-11-20T18:06:45.308Z,563.40
2018-11-20T18:07:45.302Z,558.60
2018-11-20T18:08:45.282Z,580.10
2018-11-20T18:09:45.291Z,568.30
2018-11-20T18:10:45.249Z,576.20
2018-11-20T18:11:45.265Z,555.20
2018-11-20T18:12:45.259Z,579.20
2018-11-20T18:13:45.252Z,578.40
2018-11-20T18:14:45.202Z,536.20
2018-11-20T18:15:45.229Z,574.50
2018-11-20T18:16:45.200Z,553.00
2018-11-20T18:17:45.184Z,588.10
2018-11-20T18:18:45.172Z,622.80
2018-11-20T18:19:45.151Z,553.30
2018-11-20T18:20:45.165Z,610.20
2018-11-20T18:21:45.138Z,566.70
2018-11-20T18:22:45.126Z,574.20
2018-11-20T18:23:45.135Z,599.80
2018-11-20T18:24:45.121Z,589.30
2018-11-20T18:25:45.112Z,583.60
2018-11-20T18:26:45.110Z,577.80
2018-11-20T18:27:45.092Z,571.00
2018-11-20T18:28:45.054Z,560.60
2018-11-20T18:29:45.066Z,538.40
2018-11-20T18:30:45.042Z,544.70
2018-11-20T18:31:45.029Z,547.80
2018-11-20T18:32:45.032Z,552.70
2018-11-20T18:33:45.068Z,554.50
2018-11-20T18:34:45.073Z,516.90
2018-11-20T18:35:45.044Z,583.40
2018-11-20T18:36:44.975Z,557.60
2018-11-20T18:37:44.955Z,549.70
2018-11-20T18:38:45.012Z,583.90
2018-11-20T18:39:44.961Z,517.00
2018-11-20T18:40:44.930Z,543.40
2018-11-20T18:41:44.963Z,532.10
2018-11-20T18:42:44.916Z,565.90
2018-11-20T18:43:44.920Z,531.90
2018-11-20T18:44:44.907Z,496.10
2018-11-20T18:45:44.897Z,504.80
2018-11-20T18:46:44.889Z,508.00
2018-11-20T18:47:44.882Z,461.80
2018-11-20T18:48:44.860Z,464.30
2018-11-20T18:49:44.848Z,482.90
2018-11-20T18:50:44.830Z,510.00
2018-11-20T18:51:44.838Z,471.00
2018-11-20T18:52:44.792Z,477.30
2018-11-20T18:53:44.813Z,477.60
2018-11-20T18:54:44.803Z,502.00
2018-11-20T18:55:44.769Z,466.50
2018-11-20T18:56:44.794Z,495.20
2018-11-20T18:57:44.742Z,477.40
2018-11-20T18:58:44.817Z,471.20
2018-11-20T18:59:44.759Z,504.20
2018-11-20T19:00:44.739Z,493.70
2018-11-20T19:01:44.748Z,499.20
2018-11-20T19:02:44.717Z,448.00
2018-11-20T19:03:44.692Z,479.40
2018-11-20T19:04:44.704Z,503.90
2018-11-20T19:05:44.669Z,499.70
2018-11-20T19:06:44.664Z,452.90
2018-11-20T19:07:44.674Z,496.60
2018-11-20T19:08:44.646Z,479.20
2018-11-20T19:09:44.628Z,507.90
2018-11-20T19:10:44.623Z,474.00
2018-11-20T19:11:44.620Z,451.90
2018-11-20T19:12:44.627Z,469.20
2018-11-20T19:13:44.605Z,487.50
2018-11-20T19:14:45.401Z,483.90
2018-11-20T19:15:44.572Z,469.70
2018-11-20T19:16:44.571Z,517.50
2018-11-20T19:17:44.544Z,475.60
2018-11-20T19:18:44.549Z,488.50
2018-11-20T19:19:44.510Z,475.30
2018-11-20T19:20:44.523Z,509.00
2018-11-20T19:21:44.512Z,487.80
2018-11-20T19:22:44.517Z,450.30
2018-11-20T19:23:44.503Z,463.10
2018-11-20T19:24:44.573Z,473.20
2018-11-20T19:25:44.467Z,481.20
2018-11-20T19:26:44.741Z,503.10
2018-11-20T19:27:44.436Z,499.10
2018-11-20T19:28:44.421Z,487.30
2018-11-20T19:29:44.408Z,500.30
2018-11-20T19:30:44.414Z,529.60
2018-11-20T19:31:44.422Z,549.40
2018-11-20T19:32:44.372Z,517.40
2018-11-20T19:33:44.371Z,470.20
2018-11-20T19:34:44.413Z,520.70
2018-11-20T19:35:44.347Z,482.20
2018-11-20T19:36:44.368Z,478.20
2018-11-20T19:37:44.392Z,477.50
2018-11-20T19:38:44.380Z,505.30
2018-11-20T19:39:44.313Z,510.60
2018-11-20T19:40:44.317Z,499.80
2018-11-20T19:41:44.273Z,422.30
2018-11-20T19:42:44.284Z,490.90
2018-11-20T19:43:44.271Z,493.00
2018-11-20T19:44:44.258Z,493.80
2018-11-20T19:45:44.269Z,507.70
2018-11-20T19:46:44.246Z,471.90
2018-11-20T19:47:44.232Z,552.00
2018-11-20T19:48:44.212Z,558.40
2018-11-20T19:49:44.219Z,458.10
2018-11-20T19:50:44.185Z,509.90
2018-11-20T19:51:44.206Z,579.10
2018-11-20T19:52:44.162Z,559.10
2018-11-20T19:53:44.332Z,450.70
2018-11-20T19:54:44.122Z,497.30
2018-11-20T19:55:44.139Z,560.50
2018-11-20T19:56:44.138Z,503.60
2018-11-20T19:57:44.113Z,552.80
2018-11-20T19:58:44.510Z,540.50
2018-11-20T19:59:44.113Z,531.30
2018-11-20T20:00:44.073Z,569.20
2018-11-20T20:01:44.080Z,563.10
2018-11-20T20:02:44.078Z,596.30
2018-11-20T20:03:44.039Z,554.20
2018-11-20T20:04:45.888Z,550.30
2018-11-20T20:05:44.009Z,520.60
2018-11-20T20:06:44.007Z,493.00
2018-11-20T20:07:43.988Z,525.30
2018-11-20T20:08:43.985Z,545.40
2018-11-20T20:09:43.974Z,546.60
2018-11-20T20:10:45.967Z,545.30
2018-11-20T20:11:43.952Z,516.00
2018-11-20T20:12:43.958Z,579.10
2018-11-20T20:13:43.946Z,534.20
2018-11-20T20:14:43.923Z,522.60
2018-11-20T20:15:44.690Z,510.80
2018-11-20T20:16:45.986Z,545.50
2018-11-20T20:17:43.935Z,545.30
2018-11-20T20:18:43.869Z,576.90
2018-11-20T20:19:43.912Z,560.20
2018-11-20T20:20:43.863Z,549.80
2018-11-20T20:21:43.868Z,568.10
2018-11-20T20:22:44.228Z,566.00
2018-11-20T20:23:43.843Z,594.30
2018-11-20T20:24:43.828Z,565.90
2018-11-20T20:25:43.782Z,597.10
2018-11-20T20:26:43.784Z,559.40
2018-11-20T20:27:43.764Z,547.50
2018-11-20T20:28:44.219Z,550.10
2018-11-20T20:29:43.745Z,532.70
2018-11-20T20:30:43.798Z,559.00
2018-11-20T20:31:43.731Z,527.20
2018-11-20T20:32:43.744Z,554.00
2018-11-20T20:33:43.720Z,575.50
2018-11-20T20:34:45.773Z,516.20
2018-11-20T20:35:43.704Z,563.90
2018-11-20T20:36:43.690Z,542.80
2018-11-20T20:37:43.664Z,559.40
2018-11-20T20:38:43.676Z,580.20
2018-11-20T20:39:43.663Z,550.90
2018-11-20T20:40:45.777Z,517.00
2018-11-20T20:41:43.653Z,554.40
2018-11-20T20:42:43.609Z,543.70
2018-11-20T20:43:43.602Z,562.70
2018-11-20T20:44:43.606Z,558.00
2018-11-20T20:45:43.585Z,531.30
2018-11-20T20:46:45.685Z,553.10
2018-11-20T20:47:43.567Z,508.00
2018-11-20T20:48:43.555Z,528.30
2018-11-20T20:49:43.550Z,534.20
2018-11-20T20:50:43.596Z,558.50
2018-11-20T20:51:43.523Z,555.40
2018-11-20T20:52:45.651Z,592.20
2018-11-20T20:53:43.504Z,582.80
2018-11-20T20:54:43.506Z,561.40
2018-11-20T20:55:43.467Z,520.00
2018-11-20T20:56:43.452Z,536.50
2018-11-20T20:57:43.456Z,557.50
2018-11-20T20:58:45.307Z,535.00
2018-11-20T20:59:43.426Z,594.40
2018-11-20T21:00:50.094Z,572.20
2018-11-20T21:01:43.424Z,559.50
2018-11-20T21:02:43.433Z,505.60
2018-11-20T21:03:43.409Z,613.90
2018-11-20T21:04:43.782Z,552.30
2018-11-20T21:05:43.422Z,591.90
2018-11-20T21:06:43.363Z,576.60
2018-11-20T21:07:43.421Z,557.90
2018-11-20T21:08:45.230Z,561.10
2018-11-20T21:09:45.201Z,593.80
2018-11-20T21:10:43.366Z,565.80
2018-11-20T21:11:43.352Z,604.10
2018-11-20T21:12:43.293Z,550.40
2018-11-20T21:13:43.305Z,550.30
2018-11-20T21:14:43.278Z,590.90
2018-11-20T21:15:45.411Z,593.90
2018-11-20T21:16:43.270Z,573.70
2018-11-20T21:17:43.253Z,543.20
2018-11-20T21:18:43.230Z,545.50
2018-11-20T21:19:43.205Z,598.30
2018-11-20T21:20:43.236Z,608.70
2018-11-20T21:21:46.598Z,582.60
2018-11-20T21:22:43.205Z,552.20
2018-11-20T21:23:43.184Z,557.70
2018-11-20T21:24:43.170Z,526.50
2018-11-20T21:25:43.199Z,558.70
2018-11-20T21:26:43.138Z,564.30
2018-11-20T21:27:43.471Z,558.50
2018-11-20T21:28:43.125Z,577.40
2018-11-20T21:29:43.106Z,575.30
2018-11-20T21:30:43.385Z,524.90
2018-11-20T21:31:43.080Z,579.30
2018-11-20T21:32:43.065Z,589.50
2018-11-20T21:33:43.687Z,509.20
2018-11-20T21:34:43.062Z,542.40
2018-11-20T21:35:46.793Z,540.40
2018-11-20T21:36:43.032Z,524.20
2018-11-20T21:37:43.043Z,563.30
2018-11-20T21:38:42.987Z,537.50
2018-11-20T21:39:46.616Z,553.70
2018-11-20T21:40:43.029Z,463.00
2018-11-20T21:41:42.968Z,533.40
2018-11-20T21:42:42.949Z,569.60
2018-11-20T21:43:42.946Z,477.30
2018-11-20T21:44:42.924Z,533.90
2018-11-20T21:45:44.826Z,545.80
2018-11-20T21:46:42.926Z,559.40
2018-11-20T21:47:42.925Z,524.30
2018-11-20T21:48:42.897Z,580.40
2018-11-20T21:49:42.982Z,548.40
2018-11-20T21:50:42.910Z,506.80
2018-11-20T21:51:44.861Z,521.70
2018-11-20T21:52:42.877Z,542.80
2018-11-20T21:53:42.885Z,593.30
2018-11-20T21:54:42.835Z,539.20
2018-11-20T21:55:42.804Z,497.50
2018-11-20T21:56:42.805Z,519.90
2018-11-20T21:57:43.127Z,526.50
2018-11-20T21:58:42.797Z,539.40
2018-11-20T21:59:42.781Z,534.80
2018-11-20T22:00:42.760Z,529.20
2018-11-20T22:01:42.753Z,525.50
2018-11-20T22:02:44.607Z,563.70
2018-11-20T22:03:42.712Z,541.20
2018-11-20T22:04:42.731Z,525.90
2018-11-20T22:05:42.707Z,546.60
2018-11-20T22:06:42.715Z,564.60
2018-11-20T22:07:42.695Z,519.90
2018-11-20T22:08:43.026Z,517.60
2018-11-20T22:09:42.660Z,528.20
2018-11-20T22:10:42.644Z,518.80
2018-11-20T22:11:42.644Z,516.00
2018-11-20T22:12:42.609Z,504.90
2018-11-20T22:13:43.299Z,514.60
2018-11-20T22:14:42.616Z,516.70
2018-11-20T22:15:42.590Z,516.40
2018-11-20T22:16:42.581Z,498.00
2018-11-20T22:17:42.620Z,494.60
2018-11-20T22:18:42.563Z,517.10
2018-11-20T22:19:44.511Z,557.90
2018-11-20T22:20:42.589Z,551.70
2018-11-20T22:21:42.514Z,494.10
2018-11-20T22:22:42.532Z,497.60
2018-11-20T22:23:42.512Z,539.80
2018-11-20T22:24:42.532Z,503.80
2018-11-20T22:25:42.722Z,510.20
2018-11-20T22:26:42.444Z,524.10
2018-11-20T22:27:42.470Z,507.40
2018-11-20T22:28:42.450Z,541.90
2018-11-20T22:29:42.440Z,557.70
2018-11-20T22:30:44.278Z,548.10
2018-11-20T22:31:42.422Z,531.90
2018-11-20T22:32:42.411Z,567.90
2018-11-20T22:33:42.383Z,521.00
2018-11-20T22:34:42.375Z,526.00
2018-11-20T22:35:42.374Z,540.60
2018-11-20T22:36:44.217Z,540.50
2018-11-20T22:37:42.340Z,570.90
2018-11-20T22:38:42.328Z,521.50
2018-11-20T22:39:42.332Z,528.00
2018-11-20T22:40:42.314Z,526.20
2018-11-20T22:41:42.311Z,538.90
2018-11-20T22:42:42.743Z,552.80
2018-11-20T22:43:42.464Z,536.00
2018-11-20T22:44:42.256Z,547.20
2018-11-20T22:45:42.255Z,547.80
2018-11-20T22:46:42.256Z,555.50
2018-11-20T22:47:42.219Z,529.80
2018-11-20T22:48:44.532Z,505.30
2018-11-20T22:49:42.207Z,523.90
2018-11-20T22:50:42.233Z,506.60
2018-11-20T22:51:42.185Z,507.00
2018-11-20T22:52:42.181Z,555.70
2018-11-20T22:53:42.151Z,544.50
2018-11-20T22:54:45.521Z,506.90
2018-11-20T22:55:42.347Z,527.40
2018-11-20T22:56:42.173Z,450.00
2018-11-20T22:57:42.116Z,486.00
2018-11-20T22:58:42.091Z,479.70
2018-11-20T22:59:42.095Z,507.20
2018-11-20T23:00:42.323Z,561.10
2018-11-20T23:01:42.083Z,541.00
2018-11-20T23:02:42.071Z,496.90
2018-11-20T23:03:42.051Z,506.50
2018-11-20T23:04:42.048Z,520.70
2018-11-20T23:05:42.041Z,553.70
2018-11-20T23:06:42.638Z,547.80
2018-11-20T23:07:42.028Z,530.90
2018-11-20T23:08:41.985Z,521.50
2018-11-20T23:09:41.975Z,533.40
2018-11-20T23:10:41.974Z,507.70
2018-11-20T23:11:41.950Z,523.00
2018-11-20T23:12:43.913Z,535.20
2018-11-20T23:13:41.925Z,514.30
2018-11-20T23:14:41.903Z,539.40
2018-11-20T23:15:41.923Z,535.30
2018-11-20T23:16:41.917Z,538.80
2018-11-20T23:17:41.895Z,569.50
2018-11-20T23:18:43.786Z,504.20
2018-11-20T23:19:41.890Z,515.80
2018-11-20T23:20:41.862Z,508.70
2018-11-20T23:21:41.852Z,527.10
2018-11-20T23:22:41.847Z,509.60
2018-11-20T23:23:41.841Z,509.90
2018-11-20T23:24:44.021Z,550.40
2018-11-20T23:25:41.812Z,517.20
2018-11-20T23:26:41.796Z,486.70
2018-11-20T23:27:41.794Z,571.30
2018-11-20T23:28:41.764Z,520.90
2018-11-20T23:29:41.742Z,530.50
2018-11-20T23:30:42.109Z,508.70
2018-11-20T23:31:41.727Z,545.80
2018-11-20T23:32:41.738Z,540.20
2018-11-20T23:33:41.731Z,567.50
2018-11-20T23:34:41.712Z,530.60
2018-11-20T23:35:42.133Z,528.30
2018-11-20T23:36:41.723Z,558.00
2018-11-20T23:37:41.678Z,582.90
2018-11-20T23:38:41.669Z,530.50
2018-11-20T23:39:41.663Z,534.80
2018-11-20T23:40:43.622Z,575.20
2018-11-20T23:41:41.613Z,534.90
2018-11-20T23:42:41.631Z,522.00
2018-11-20T23:43:41.578Z,529.60
2018-11-20T23:44:41.590Z,491.30
2018-11-20T23:45:41.572Z,512.20
2018-11-20T23:46:41.897Z,559.10
2018-11-20T23:47:41.584Z,565.30
2018-11-20T23:48:41.566Z,517.90
2018-11-20T23:49:41.546Z,551.80
2018-11-20T23:50:41.544Z,529.90
2018-11-20T23:51:41.974Z,529.70
2018-11-20T23:52:41.519Z,521.20
2018-11-20T23:53:41.479Z,519.10
2018-11-20T23:54:41.474Z,543.30
2018-11-20T23:55:41.443Z,534.20
2018-11-20T23:56:41.844Z,543.30
2018-11-20T23:57:41.494Z,551.00
2018-11-20T23:58:41.431Z,558.00
2018-11-20T23:59:41.406Z,564.50
